createdAt,value
2023-03-19T00:00:45.708Z,60.35
2023-03-19T00:03:36.865Z,60.67
2023-03-19T00:06:08.178Z,61.07
2023-03-19T00:08:39.210Z,61.73
2023-03-19T00:11:10.201Z,62.13
2023-03-19T00:13:41.497Z,70.40
2023-03-19T00:16:12.307Z,68.90
2023-03-19T00:18:43.190Z,61.14
2023-03-19T00:21:13.910Z,61.14
2023-03-19T00:23:45.016Z,59.52
2023-03-19T00:26:15.594Z,56.53
2023-03-19T00:28:47.483Z,56.90
2023-03-19T00:31:18.575Z,57.15
2023-03-19T00:33:49.373Z,60.85
2023-03-19T00:36:20.559Z,65.94
2023-03-19T00:38:51.795Z,63.29
2023-03-19T00:41:22.971Z,58.60
2023-03-19T00:43:56.018Z,57.24
2023-03-19T00:46:27.679Z,58.60
2023-03-19T00:48:59.138Z,60.88
2023-03-19T00:51:29.784Z,61.86
2023-03-19T00:54:00.395Z,66.39
2023-03-19T00:56:31.233Z,67.69
2023-03-19T00:59:02.580Z,60.85
2023-03-19T01:01:33.427Z,57.84
2023-03-19T01:04:05.408Z,59.59
2023-03-19T01:06:36.107Z,61.44
2023-03-19T01:09:07.040Z,66.72
2023-03-19T01:11:39.409Z,66.89
2023-03-19T01:14:11.305Z,61.17
2023-03-19T01:16:42.104Z,58.10
2023-03-19T01:19:13.159Z,59.14
2023-03-19T01:21:46.675Z,60.57
2023-03-19T01:24:20.860Z,65.56
2023-03-19T01:26:56.313Z,66.64
2023-03-19T01:29:38.099Z,64.15
2023-03-19T01:32:28.834Z,61.88
2023-03-19T01:35:35.623Z,56.10
2023-03-19T01:38:06.717Z,58.31
2023-03-19T01:40:37.742Z,60.12
2023-03-19T01:43:19.257Z,64.82
2023-03-19T01:46:02.010Z,67.93
2023-03-19T01:48:52.870Z,63.52
2023-03-19T01:51:25.857Z,60.60
2023-03-19T01:54:05.036Z,57.26
2023-03-19T01:56:50.806Z,57.31
2023-03-19T01:59:30.023Z,57.98
2023-03-19T02:02:15.681Z,59.11
2023-03-19T02:04:47.734Z,64.84
2023-03-19T02:07:18.774Z,67.16
2023-03-19T02:09:49.623Z,64.94
2023-03-19T02:12:20.656Z,61.62
2023-03-19T02:14:51.185Z,57.01
2023-03-19T02:17:23.069Z,56.62
2023-03-19T02:19:58.398Z,58.40
2023-03-19T02:22:30.825Z,59.28
2023-03-19T02:25:03.952Z,62.68
2023-03-19T02:27:35.012Z,67.44
2023-03-19T02:30:19.369Z,64.94
2023-03-19T02:32:50.310Z,60.08
2023-03-19T02:35:21.736Z,55.55
2023-03-19T02:37:52.504Z,57.23
2023-03-19T02:40:24.957Z,59.77
2023-03-19T02:42:55.766Z,66.60
2023-03-19T02:45:29.217Z,66.94
2023-03-19T02:48:00.371Z,63.81
2023-03-19T02:50:31.518Z,61.79
2023-03-19T02:53:01.981Z,58.30
2023-03-19T02:55:33.016Z,56.26
2023-03-19T02:58:03.648Z,57.99
2023-03-19T03:00:34.929Z,59.85
2023-03-19T03:03:06.832Z,64.22
2023-03-19T03:05:38.019Z,68.36
2023-03-19T03:08:08.429Z,65.13
2023-03-19T03:10:39.476Z,61.13
2023-03-19T03:13:09.857Z,57.44
2023-03-19T03:15:41.024Z,57.31
2023-03-19T03:18:11.569Z,59.75
2023-03-19T03:20:42.706Z,61.97
2023-03-19T03:23:13.163Z,67.05
2023-03-19T03:25:44.003Z,64.00
2023-03-19T03:28:15.043Z,60.96
2023-03-19T03:30:46.112Z,56.60
2023-03-19T03:33:17.635Z,57.28
2023-03-19T03:35:49.197Z,59.67
2023-03-19T03:38:19.991Z,64.48
2023-03-19T03:40:52.763Z,64.35
2023-03-19T03:43:23.921Z,60.84
2023-03-19T03:45:55.484Z,57.69
2023-03-19T03:48:26.210Z,57.96
2023-03-19T03:50:57.279Z,60.30
2023-03-19T03:53:29.920Z,65.14
2023-03-19T03:56:01.179Z,63.63
2023-03-19T03:58:31.810Z,58.23
2023-03-19T04:01:03.178Z,57.72
2023-03-19T04:03:35.053Z,61.67
2023-03-19T04:06:06.648Z,65.62
2023-03-19T04:08:37.204Z,62.59
2023-03-19T04:11:09.482Z,61.08
2023-03-19T04:13:40.200Z,59.34
2023-03-19T04:16:12.501Z,59.22
2023-03-19T04:18:42.990Z,61.30
2023-03-19T04:21:14.237Z,68.06
2023-03-19T04:23:44.979Z,67.85
2023-03-19T04:26:16.427Z,65.63
2023-03-19T04:28:47.222Z,62.88
2023-03-19T04:31:18.246Z,60.52
2023-03-19T04:33:49.420Z,57.11
2023-03-19T04:36:20.789Z,57.08
2023-03-19T04:38:51.609Z,58.67
2023-03-19T04:41:23.697Z,60.20
2023-03-19T04:44:10.311Z,61.32
2023-03-19T04:46:44.952Z,66.46
2023-03-19T04:49:16.009Z,69.69
2023-03-19T04:51:47.138Z,66.93
2023-03-19T04:54:18.973Z,60.18
2023-03-19T04:56:49.892Z,57.20
2023-03-19T04:59:22.873Z,60.44
2023-03-19T05:01:54.434Z,64.93
2023-03-19T05:04:26.911Z,63.38
2023-03-19T05:06:59.796Z,64.08
2023-03-19T05:09:31.156Z,62.21
2023-03-19T05:12:02.068Z,59.77
2023-03-19T05:14:35.476Z,57.16
2023-03-19T05:17:17.873Z,56.58
2023-03-19T05:19:54.039Z,59.00
2023-03-19T05:22:25.276Z,60.62
2023-03-19T05:24:58.685Z,66.71
2023-03-19T05:27:30.683Z,68.27
2023-03-19T05:30:13.782Z,64.70
2023-03-19T05:33:04.182Z,58.19
2023-03-19T05:35:39.347Z,55.73
2023-03-19T05:38:15.821Z,56.59
2023-03-19T05:40:47.436Z,59.47
2023-03-19T05:43:33.000Z,63.77
2023-03-19T05:46:04.841Z,66.90
2023-03-19T05:48:37.127Z,63.33
2023-03-19T05:51:08.119Z,57.64
2023-03-19T05:53:43.118Z,56.02
2023-03-19T05:56:32.566Z,57.03
2023-03-19T05:59:17.338Z,58.98
2023-03-19T06:01:52.015Z,60.56
2023-03-19T06:04:23.536Z,65.96
2023-03-19T06:06:54.188Z,64.92
2023-03-19T06:09:25.593Z,60.38
2023-03-19T06:11:59.504Z,57.26
2023-03-19T06:14:49.272Z,56.40
2023-03-19T06:17:46.017Z,57.45
2023-03-19T06:20:19.115Z,59.69
2023-03-19T06:22:49.692Z,59.62
2023-03-19T06:25:20.972Z,63.26
2023-03-19T06:27:51.712Z,65.49
2023-03-19T06:30:27.985Z,62.49
2023-03-19T06:32:59.987Z,55.02
2023-03-19T06:35:32.427Z,54.78
2023-03-19T06:38:02.936Z,56.62
2023-03-19T06:40:33.944Z,57.93
2023-03-19T06:43:04.624Z,57.99
2023-03-19T06:45:35.790Z,58.82
2023-03-19T06:48:06.936Z,59.38
2023-03-19T06:50:38.042Z,59.71
2023-03-19T06:53:08.783Z,64.31
2023-03-19T06:55:40.432Z,63.59
2023-03-19T06:58:10.853Z,56.78
2023-03-19T07:00:41.835Z,56.32
2023-03-19T07:03:12.536Z,56.10
2023-03-19T07:05:43.683Z,56.90
2023-03-19T07:08:14.055Z,57.30
2023-03-19T07:10:45.345Z,59.56
2023-03-19T07:13:16.082Z,58.56
2023-03-19T07:15:48.527Z,58.17
2023-03-19T07:18:19.791Z,58.48
2023-03-19T07:20:50.856Z,60.35
2023-03-19T07:23:21.500Z,59.21
2023-03-19T07:25:52.517Z,59.10
2023-03-19T07:28:23.165Z,61.09
2023-03-19T07:30:54.332Z,61.58
2023-03-19T07:33:24.705Z,58.85
2023-03-19T07:35:56.402Z,59.31
2023-03-19T07:38:27.004Z,60.00
2023-03-19T07:41:02.478Z,60.07
2023-03-19T07:43:33.470Z,59.54
2023-03-19T07:46:04.547Z,59.86
2023-03-19T07:48:34.952Z,59.04
2023-03-19T07:51:06.227Z,58.80
2023-03-19T07:53:36.808Z,57.70
2023-03-19T07:56:08.578Z,57.72
2023-03-19T07:58:38.939Z,57.06
2023-03-19T08:01:10.189Z,56.61
2023-03-19T08:03:40.764Z,55.62
2023-03-19T08:06:12.121Z,56.17
2023-03-19T08:08:42.545Z,54.35
2023-03-19T08:11:13.396Z,53.02
2023-03-19T08:13:43.800Z,53.84
2023-03-19T08:16:15.053Z,53.21
2023-03-19T08:18:45.785Z,53.94
2023-03-19T08:21:16.927Z,53.87
2023-03-19T08:23:47.561Z,53.73
2023-03-19T08:26:18.800Z,52.38
2023-03-19T08:28:49.175Z,49.62
2023-03-19T08:31:20.391Z,48.57
2023-03-19T08:33:50.935Z,49.96
2023-03-19T08:36:22.662Z,50.92
2023-03-19T08:38:55.010Z,49.18
2023-03-19T08:41:26.191Z,49.89
2023-03-19T08:43:56.594Z,49.90
2023-03-19T08:46:28.369Z,48.19
2023-03-19T08:48:58.882Z,44.86
2023-03-19T08:51:31.870Z,45.89
2023-03-19T08:54:02.705Z,45.32
2023-03-19T08:56:33.948Z,42.46
2023-03-19T08:59:04.473Z,43.87
2023-03-19T09:01:35.329Z,43.08
2023-03-19T09:04:06.242Z,42.10
2023-03-19T09:06:37.412Z,42.23
2023-03-19T09:09:07.927Z,41.10
2023-03-19T09:11:39.246Z,41.65
2023-03-19T09:14:11.707Z,42.02
2023-03-19T09:16:43.092Z,42.89
2023-03-19T09:19:13.686Z,41.84
2023-03-19T09:21:46.034Z,42.65
2023-03-19T09:24:16.388Z,43.88
2023-03-19T09:26:47.886Z,42.24
2023-03-19T09:29:18.228Z,41.19
2023-03-19T09:31:49.608Z,42.09
2023-03-19T09:34:19.976Z,42.56
2023-03-19T09:36:58.424Z,42.21
2023-03-19T09:39:29.306Z,40.71
2023-03-19T09:42:06.619Z,41.18
2023-03-19T09:44:38.258Z,40.42
2023-03-19T09:47:17.342Z,41.53
2023-03-19T09:49:49.369Z,38.32
2023-03-19T09:52:27.040Z,39.46
2023-03-19T09:54:58.746Z,37.21
2023-03-19T09:57:30.449Z,37.17
2023-03-19T10:00:01.510Z,37.64
2023-03-19T10:02:39.245Z,36.79
2023-03-19T10:05:21.184Z,35.16
2023-03-19T10:08:03.417Z,35.79
2023-03-19T10:10:44.056Z,37.56
2023-03-19T10:13:19.412Z,37.50
2023-03-19T10:15:51.690Z,36.10
2023-03-19T10:18:26.022Z,36.83
2023-03-19T10:20:59.681Z,36.69
2023-03-19T10:23:33.999Z,36.79
2023-03-19T10:26:06.108Z,36.66
2023-03-19T10:28:37.842Z,37.66
2023-03-19T10:31:19.306Z,36.97
2023-03-19T10:33:54.878Z,37.97
2023-03-19T10:36:27.965Z,38.27
2023-03-19T10:38:59.499Z,37.54
2023-03-19T10:41:36.161Z,37.92
2023-03-19T10:44:11.570Z,34.62
2023-03-19T10:46:42.331Z,34.53
2023-03-19T10:49:17.330Z,35.92
2023-03-19T10:51:48.135Z,36.33
2023-03-19T10:54:22.182Z,36.04
2023-03-19T10:56:53.374Z,36.68
2023-03-19T10:59:25.770Z,36.25
2023-03-19T11:01:59.866Z,35.71
2023-03-19T11:04:33.249Z,34.09
2023-03-19T11:07:10.595Z,34.24
2023-03-19T11:09:42.190Z,35.36
2023-03-19T11:12:18.981Z,36.16
2023-03-19T11:14:51.456Z,35.92
2023-03-19T11:17:27.090Z,35.13
2023-03-19T11:19:59.200Z,33.52
2023-03-19T11:22:31.824Z,33.95
2023-03-19T11:25:03.543Z,33.86
2023-03-19T11:27:35.093Z,32.94
2023-03-19T11:30:09.677Z,33.76
2023-03-19T11:32:53.544Z,32.40
2023-03-19T11:35:28.957Z,32.43
2023-03-19T11:38:04.709Z,34.12
2023-03-19T11:40:40.196Z,34.35
2023-03-19T11:43:22.728Z,34.59
2023-03-19T11:45:58.008Z,32.42
2023-03-19T11:48:35.182Z,32.26
2023-03-19T11:51:09.792Z,31.81
2023-03-19T11:53:45.097Z,32.66
2023-03-19T11:56:22.633Z,32.18
2023-03-19T11:59:06.879Z,32.18
2023-03-19T12:01:47.461Z,32.39
2023-03-19T12:04:23.718Z,31.71
2023-03-19T12:07:01.193Z,32.38
2023-03-19T12:09:37.356Z,32.44
2023-03-19T12:12:14.742Z,32.53
2023-03-19T12:14:52.753Z,32.22
2023-03-19T12:17:30.392Z,32.80
2023-03-19T12:20:07.965Z,33.06
2023-03-19T12:22:44.288Z,33.03
2023-03-19T12:25:31.449Z,32.31
2023-03-19T12:28:05.028Z,31.98
2023-03-19T12:30:33.758Z,32.14
2023-03-19T12:33:18.139Z,32.73
2023-03-19T12:35:50.890Z,32.07
2023-03-19T12:38:25.663Z,32.05
2023-03-19T12:40:59.805Z,31.62
2023-03-19T12:43:33.693Z,31.83
2023-03-19T12:46:08.815Z,29.42
2023-03-19T12:48:42.598Z,29.99
2023-03-19T12:51:15.565Z,30.57
2023-03-19T12:53:45.539Z,30.81
2023-03-19T12:56:18.956Z,31.41
2023-03-19T12:58:57.411Z,30.87
2023-03-19T13:01:32.046Z,31.29
2023-03-19T13:04:08.091Z,29.31
2023-03-19T13:06:40.286Z,28.76
2023-03-19T13:09:15.329Z,29.22
2023-03-19T13:11:48.715Z,29.81
2023-03-19T13:14:23.440Z,29.04
2023-03-19T13:16:56.664Z,28.48
2023-03-19T13:19:30.659Z,28.32
2023-03-19T13:22:03.603Z,28.18
2023-03-19T13:24:35.934Z,27.23
2023-03-19T13:27:07.885Z,27.65
2023-03-19T13:29:39.480Z,26.30
2023-03-19T13:32:23.762Z,26.31
2023-03-19T13:35:09.970Z,24.65
2023-03-19T13:37:42.884Z,22.82
2023-03-19T13:40:27.922Z,23.32
2023-03-19T13:42:58.744Z,24.33
2023-03-19T13:45:36.090Z,21.00
2023-03-19T13:48:24.379Z,21.70
2023-03-19T13:51:01.307Z,21.43
2023-03-19T13:53:39.493Z,23.00
2023-03-19T13:56:28.670Z,23.15
2023-03-19T13:59:13.344Z,22.07
2023-03-19T14:01:47.671Z,22.17
2023-03-19T14:04:20.102Z,21.50
2023-03-19T14:15:03.257Z,22.69
2023-03-19T14:17:35.427Z,23.15
2023-03-19T14:20:28.394Z,23.86
2023-03-19T14:23:23.482Z,24.17
2023-03-19T14:26:01.922Z,24.18
2023-03-19T14:28:36.850Z,24.66
2023-03-19T14:31:08.637Z,24.34
2023-03-19T14:33:43.645Z,24.78
2023-03-19T14:36:17.558Z,25.04
2023-03-19T14:38:51.200Z,25.13
2023-03-19T14:41:23.737Z,24.92
2023-03-19T14:44:02.947Z,25.37
2023-03-19T14:46:38.617Z,25.40
2023-03-19T14:49:26.314Z,25.75
2023-03-19T14:51:59.108Z,26.04
2023-03-19T14:54:28.152Z,26.53
2023-03-19T14:56:59.371Z,27.15
2023-03-19T14:59:37.747Z,27.95
2023-03-19T15:02:19.335Z,28.22
2023-03-19T15:04:50.285Z,28.61
2023-03-19T15:07:23.011Z,28.89
2023-03-19T15:09:55.177Z,29.09
2023-03-19T15:12:39.982Z,29.05
2023-03-19T15:15:26.806Z,29.36
2023-03-19T15:18:04.149Z,29.32
2023-03-19T15:20:38.225Z,29.00
2023-03-19T15:23:25.841Z,29.21
2023-03-19T15:25:58.171Z,29.21
2023-03-19T15:28:29.966Z,29.18
2023-03-19T15:31:14.425Z,28.93
2023-03-19T15:33:53.376Z,29.31
2023-03-19T15:36:26.111Z,29.12
2023-03-19T15:39:01.291Z,29.24
2023-03-19T15:41:33.104Z,29.59
2023-03-19T15:44:06.817Z,29.91
2023-03-19T15:46:38.422Z,30.07
2023-03-19T15:49:11.901Z,30.39
2023-03-19T15:51:42.695Z,30.67
2023-03-19T15:54:14.287Z,30.97
2023-03-19T15:56:44.935Z,31.27
2023-03-19T15:59:16.545Z,31.63
2023-03-19T16:01:47.544Z,31.62
2023-03-19T16:04:21.280Z,31.96
2023-03-19T16:06:52.634Z,32.50
2023-03-19T16:09:26.245Z,32.60
2023-03-19T16:11:57.303Z,32.94
2023-03-19T16:14:33.056Z,33.39
2023-03-19T16:17:04.690Z,33.90
2023-03-19T16:19:36.877Z,33.98
2023-03-19T16:22:14.018Z,34.33
2023-03-19T16:24:46.177Z,34.58
2023-03-19T16:27:18.045Z,34.89
2023-03-19T16:29:50.109Z,35.30
2023-03-19T16:32:22.270Z,35.17
2023-03-19T16:34:54.029Z,35.39
2023-03-19T16:37:34.046Z,35.71
2023-03-19T16:40:17.721Z,35.86
2023-03-19T16:42:49.684Z,36.24
2023-03-19T16:45:27.676Z,36.61
2023-03-19T16:47:58.738Z,36.68
2023-03-19T16:50:32.681Z,36.91
2023-03-19T16:53:05.106Z,37.21
2023-03-19T16:55:37.006Z,37.43
2023-03-19T16:58:09.252Z,37.69
2023-03-19T17:00:40.703Z,37.74
2023-03-19T17:03:13.919Z,38.01
2023-03-19T17:05:46.454Z,38.16
2023-03-19T17:08:16.885Z,38.71
2023-03-19T17:10:50.163Z,38.64
2023-03-19T17:13:22.131Z,38.67
2023-03-19T17:15:54.932Z,38.68
2023-03-19T17:18:27.807Z,38.37
2023-03-19T17:20:59.961Z,39.35
2023-03-19T17:23:30.701Z,39.50
2023-03-19T17:26:03.388Z,39.66
2023-03-19T17:28:34.011Z,39.87
2023-03-19T17:31:05.615Z,39.97
2023-03-19T17:33:36.720Z,40.22
2023-03-19T17:36:10.776Z,40.33
2023-03-19T17:38:42.064Z,40.56
2023-03-19T17:41:15.518Z,40.90
2023-03-19T17:43:46.836Z,41.06
2023-03-19T17:46:19.646Z,41.03
2023-03-19T17:48:51.365Z,41.45
2023-03-19T17:51:24.134Z,41.47
2023-03-19T17:53:55.668Z,41.86
2023-03-19T17:56:27.454Z,41.89
2023-03-19T17:58:58.266Z,42.05
2023-03-19T18:01:30.072Z,42.29
2023-03-19T18:04:02.307Z,42.20
2023-03-19T18:06:34.973Z,42.42
2023-03-19T18:09:05.911Z,42.39
2023-03-19T18:11:37.421Z,42.84
2023-03-19T18:14:08.106Z,43.92
2023-03-19T18:16:39.329Z,43.82
2023-03-19T18:19:16.998Z,43.66
2023-03-19T18:21:48.286Z,43.40
2023-03-19T18:24:19.015Z,43.31
2023-03-19T18:26:49.892Z,43.31
2023-03-19T18:29:20.800Z,43.36
2023-03-19T18:31:53.003Z,43.47
2023-03-19T18:34:23.696Z,43.51
2023-03-19T18:36:54.855Z,43.65
2023-03-19T18:39:25.878Z,43.70
2023-03-19T18:41:57.628Z,43.89
2023-03-19T18:44:28.369Z,44.05
2023-03-19T18:46:59.880Z,44.08
2023-03-19T18:49:31.174Z,44.00
2023-03-19T18:52:03.752Z,44.39
2023-03-19T18:54:34.598Z,44.86
2023-03-19T18:57:06.465Z,45.00
2023-03-19T18:59:37.282Z,45.57
2023-03-19T19:02:21.686Z,45.60
2023-03-19T19:04:52.247Z,46.65
2023-03-19T19:07:23.797Z,46.71
2023-03-19T19:09:54.395Z,46.46
2023-03-19T19:12:26.330Z,46.62
2023-03-19T19:14:58.811Z,46.99
2023-03-19T19:17:31.778Z,47.10
2023-03-19T19:20:02.373Z,47.38
2023-03-19T19:22:33.371Z,47.83
2023-03-19T19:25:03.859Z,48.71
2023-03-19T19:27:35.304Z,48.64
2023-03-19T19:30:07.107Z,48.38
2023-03-19T19:32:38.284Z,48.43
2023-03-19T19:35:15.430Z,48.42
2023-03-19T19:37:47.699Z,48.39
2023-03-19T19:40:19.324Z,48.76
2023-03-19T19:42:52.500Z,48.91
2023-03-19T19:45:27.709Z,49.74
2023-03-19T19:47:59.292Z,50.13
2023-03-19T19:50:29.694Z,49.63
2023-03-19T19:53:01.079Z,49.85
2023-03-19T19:55:31.487Z,51.12
2023-03-19T19:58:03.164Z,52.36
2023-03-19T20:00:33.776Z,52.96
2023-03-19T20:03:05.804Z,53.46
2023-03-19T20:05:36.582Z,54.22
2023-03-19T20:08:09.263Z,55.24
2023-03-19T20:10:39.880Z,55.12
2023-03-19T20:13:19.831Z,55.08
2023-03-19T20:15:50.537Z,55.30
2023-03-19T20:18:25.186Z,55.84
2023-03-19T20:20:55.940Z,56.23
2023-03-19T20:23:27.316Z,55.67
2023-03-19T20:25:58.521Z,56.34
2023-03-19T20:28:32.776Z,56.39
2023-03-19T20:31:03.794Z,56.16
2023-03-19T20:33:37.333Z,56.65
2023-03-19T20:36:06.469Z,56.39
2023-03-19T20:38:37.629Z,56.44
2023-03-19T20:41:16.138Z,57.02
2023-03-19T20:43:47.747Z,57.50
2023-03-19T20:46:19.962Z,58.13
2023-03-19T20:48:51.083Z,58.15
2023-03-19T20:51:25.061Z,58.42
2023-03-19T20:53:56.909Z,58.74
2023-03-19T20:56:27.810Z,59.11
2023-03-19T20:58:59.037Z,58.82
2023-03-19T21:01:30.094Z,59.04
2023-03-19T21:04:01.360Z,59.62
2023-03-19T21:06:49.853Z,60.21
2023-03-19T21:09:23.687Z,60.47
2023-03-19T21:11:54.304Z,59.81
2023-03-19T21:14:27.065Z,59.82
2023-03-19T21:16:57.916Z,60.88
2023-03-19T21:19:28.964Z,60.10
2023-03-19T21:21:59.799Z,61.28
2023-03-19T21:24:31.449Z,62.06
2023-03-19T21:27:04.000Z,61.44
2023-03-19T21:29:35.379Z,62.26
2023-03-19T21:32:11.330Z,66.41
2023-03-19T21:34:42.379Z,61.30
2023-03-19T21:37:13.008Z,55.25
2023-03-19T21:39:44.766Z,54.90
2023-03-19T21:42:17.456Z,55.46
2023-03-19T21:44:48.791Z,57.08
2023-03-19T21:47:22.399Z,59.28
2023-03-19T21:49:53.117Z,58.43
2023-03-19T21:52:24.070Z,60.64
2023-03-19T21:54:56.095Z,62.81
2023-03-19T21:57:26.987Z,62.60
2023-03-19T21:59:58.175Z,58.36
2023-03-19T22:02:40.772Z,55.19
2023-03-19T22:05:17.108Z,56.34
2023-03-19T22:07:47.916Z,59.04
2023-03-19T22:10:19.655Z,59.33
2023-03-19T22:12:50.642Z,62.59
2023-03-19T22:15:23.424Z,61.57
2023-03-19T22:17:54.018Z,57.12
2023-03-19T22:20:26.014Z,55.97
2023-03-19T22:22:56.810Z,58.50
2023-03-19T22:25:31.237Z,58.88
2023-03-19T22:28:05.156Z,59.18
2023-03-19T22:30:37.141Z,60.41
2023-03-19T22:33:14.054Z,60.97
2023-03-19T22:35:45.295Z,61.65
2023-03-19T22:38:16.069Z,65.11
2023-03-19T22:40:48.705Z,66.76
2023-03-19T22:43:22.757Z,63.79
2023-03-19T22:45:55.515Z,59.10
2023-03-19T22:48:26.575Z,54.96
2023-03-19T22:50:57.777Z,55.92
2023-03-19T22:53:30.716Z,56.75
2023-03-19T22:56:01.831Z,59.80
2023-03-19T22:58:32.461Z,61.76
2023-03-19T23:01:03.635Z,64.16
2023-03-19T23:03:35.446Z,62.82
2023-03-19T23:06:14.476Z,57.92
2023-03-19T23:08:47.903Z,56.47
2023-03-19T23:11:19.245Z,58.46
2023-03-19T23:13:49.876Z,60.00
2023-03-19T23:16:22.246Z,61.20
2023-03-19T23:21:24.750Z,62.45
2023-03-19T23:23:55.334Z,67.25
2023-03-19T23:26:28.571Z,64.69
2023-03-19T23:29:01.258Z,61.20
2023-03-19T23:31:32.175Z,57.18
2023-03-19T23:34:02.919Z,54.05
2023-03-19T23:36:34.160Z,55.22
2023-03-19T23:39:05.072Z,58.01
2023-03-19T23:41:39.448Z,59.39
2023-03-19T23:44:13.046Z,61.38
2023-03-19T23:46:44.295Z,64.16
2023-03-19T23:49:16.180Z,64.59
2023-03-19T23:51:47.925Z,61.34
2023-03-19T23:54:28.510Z,57.35
2023-03-19T23:57:01.208Z,54.72
2023-03-19T23:59:33.799Z,56.26
